Time;durP1;ratioP1;P1;durP2;ratioP2;P2;SDS_P1;SDS_P2;PMS_P1;PMS_P2;Temp;Humidity;BMP_temperature;BMP_pressure;BME280_temperature;BME280_humidity;BME280_pressure;Samples;Min_cycle;Max_cycle;Signal;HPM_P1;HPM_P2
2021/11/02 00:00:44;;;;;;;4.00;1.53;;;7.90;98.20;;;;;;4919631;29;20067;-80
2021/11/02 00:03:10;;;;;;;6.03;2.50;;;7.90;98.20;;;;;;4903656;29;20036;-82
2021/11/02 00:05:36;;;;;;;4.93;2.40;;;7.80;98.30;;;;;;4905997;29;20117;-79
2021/11/02 00:08:01;;;;;;;5.23;1.83;;;7.90;98.30;;;;;;4903932;29;20033;-79
2021/11/02 00:10:29;;;;;;;7.10;3.30;;;7.90;98.50;;;;;;4919415;29;20049;-80
2021/11/02 00:12:54;;;;;;;6.43;2.90;;;7.90;98.40;;;;;;4933888;29;20036;-80
2021/11/02 00:15:22;;;;;;;4.40;2.10;;;7.90;98.40;;;;;;4934933;29;20040;-80
2021/11/02 00:17:51;;;;;;;6.70;3.10;;;7.90;98.60;;;;;;4918822;29;20040;-80
2021/11/02 00:20:18;;;;;;;4.83;2.20;;;8.00;98.40;;;;;;4902995;29;20046;-81
2021/11/02 00:22:53;;;;;;;4.77;1.87;;;7.90;98.30;;;;;;4933636;29;20044;-80
2021/11/02 00:25:20;;;;;;;4.73;1.23;;;7.90;98.40;;;;;;4903459;29;20068;-80
2021/11/02 00:27:46;;;;;;;6.00;2.43;;;7.80;98.40;;;;;;4918071;29;20051;-80
2021/11/02 00:30:13;;;;;;;5.80;2.30;;;7.80;98.40;;;;;;4918611;29;20040;-80
2021/11/02 00:32:39;;;;;;;5.37;1.30;;;7.80;98.50;;;;;;4934232;29;20056;-80
2021/11/02 00:35:06;;;;;;;5.43;1.70;;;7.80;98.40;;;;;;4904142;29;20044;-80
2021/11/02 00:37:32;;;;;;;4.57;1.73;;;7.70;98.50;;;;;;4902384;29;20037;-80
2021/11/02 00:39:58;;;;;;;5.90;2.07;;;7.70;98.50;;;;;;4918095;29;20392;-80
2021/11/02 00:42:51;;;;;;;6.40;1.83;;;7.80;98.60;;;;;;4902224;29;20127;-80
2021/11/02 00:45:15;;;;;;;3.63;1.60;;;7.70;98.50;;;;;;4903661;29;20064;-80
2021/11/02 00:47:41;;;;;;;3.13;1.10;;;7.70;98.50;;;;;;4901923;29;20048;-80
2021/11/02 00:50:11;;;;;;;10.10;2.30;;;7.70;98.60;;;;;;4902129;29;20036;-79
2021/11/02 00:52:40;;;;;;;4.83;2.30;;;7.70;98.70;;;;;;4903127;29;20029;-79
2021/11/02 00:55:07;;;;;;;5.97;1.70;;;7.70;98.70;;;;;;4903007;29;20379;-80
2021/11/02 00:57:33;;;;;;;6.43;1.10;;;7.70;98.70;;;;;;4902573;29;20108;-80
2021/11/02 01:00:02;;;;;;;4.63;1.70;;;7.70;98.70;;;;;;4918783;29;20067;-81
2021/11/02 01:02:28;;;;;;;7.70;2.17;;;7.70;98.70;;;;;;4904235;29;20043;-80
2021/11/02 01:04:54;;;;;;;4.70;2.00;;;7.70;98.80;;;;;;4917166;29;20041;-80
2021/11/02 01:07:19;;;;;;;3.20;1.87;;;7.70;98.80;;;;;;4904343;29;20075;-80
2021/11/02 01:09:45;;;;;;;7.57;1.73;;;7.70;98.80;;;;;;4918760;29;20472;-80
2021/11/02 01:12:11;;;;;;;7.40;2.40;;;7.60;98.80;;;;;;4934682;29;20045;-81
2021/11/02 01:14:39;;;;;;;4.90;1.93;;;7.60;98.90;;;;;;4903086;29;20036;-80
2021/11/02 01:17:05;;;;;;;6.33;2.47;;;7.60;98.80;;;;;;4902892;29;20055;-80
2021/11/02 01:19:31;;;;;;;6.00;1.57;;;7.60;98.80;;;;;;4903366;29;20389;-80
2021/11/02 01:21:56;;;;;;;4.00;1.43;;;7.60;98.90;;;;;;4902975;29;20040;-80
2021/11/02 01:24:22;;;;;;;3.93;1.30;;;7.60;98.90;;;;;;4917382;29;20422;-79
2021/11/02 01:26:48;;;;;;;5.17;1.50;;;7.50;98.90;;;;;;4917811;29;20421;-80
2021/11/02 01:29:16;;;;;;;3.77;1.43;;;7.50;99.00;;;;;;4901444;29;20137;-80
2021/11/02 01:31:43;;;;;;;6.13;1.57;;;7.40;99.00;;;;;;4900814;29;20033;-80
2021/11/02 01:34:09;;;;;;;4.03;1.53;;;7.40;99.00;;;;;;4900332;29;20092;-80
2021/11/02 01:36:35;;;;;;;5.03;1.67;;;7.40;99.00;;;;;;4900562;29;20040;-80
2021/11/02 01:39:01;;;;;;;4.97;1.87;;;7.40;99.10;;;;;;4901627;29;20072;-81
2021/11/02 01:41:28;;;;;;;5.20;1.90;;;7.40;99.10;;;;;;4900907;29;20056;-81
2021/11/02 01:43:57;;;;;;;6.93;2.17;;;7.40;99.10;;;;;;4916611;29;20443;-79
2021/11/02 01:46:31;;;;;;;4.20;2.03;;;7.40;99.10;;;;;;4900926;29;20040;-80
2021/11/02 01:48:58;;;;;;;4.10;1.20;;;7.40;99.10;;;;;;4900675;29;20064;-80
2021/11/02 01:51:26;;;;;;;7.53;1.93;;;7.40;99.10;;;;;;4916687;29;20135;-81
2021/11/02 01:53:53;;;;;;;5.10;1.93;;;7.40;99.10;;;;;;4900881;29;20504;-80
2021/11/02 01:56:20;;;;;;;6.03;1.77;;;7.30;99.10;;;;;;4933068;29;20473;-81
2021/11/02 01:58:49;;;;;;;7.17;1.63;;;7.30;99.10;;;;;;4902253;29;20057;-80
2021/11/02 02:01:19;;;;;;;5.33;1.77;;;7.30;99.20;;;;;;4901932;29;20048;-80
2021/11/02 02:03:48;;;;;;;4.57;1.80;;;7.30;99.20;;;;;;4899995;29;20044;-80
2021/11/02 02:06:35;;;;;;;4.80;1.50;;;7.20;99.20;;;;;;4901026;29;20060;-80
2021/11/02 02:09:28;;;;;;;6.77;1.63;;;7.20;99.20;;;;;;4900368;29;20140;-80
2021/11/02 02:12:32;;;;;;;6.70;1.25;;;7.20;99.20;;;;;;4901100;29;20048;-80
2021/11/02 02:15:09;;;;;;;5.13;1.70;;;7.20;99.20;;;;;;4866321;29;20696;-80
2021/11/02 02:17:44;;;;;;;5.20;1.90;;;7.20;99.30;;;;;;4899841;29;20474;-80
2021/11/02 02:20:45;;;;;;;5.40;1.80;;;7.20;99.30;;;;;;4900362;29;20489;-81
2021/11/02 02:23:16;;;;;;;7.80;1.90;;;7.30;99.40;;;;;;4899841;29;20033;-79
2021/11/02 02:26:07;;;;;;;4.00;1.83;;;7.30;99.30;;;;;;4898541;29;20072;-80
2021/11/02 02:28:37;;;;;;;6.80;1.83;;;7.20;99.30;;;;;;4898815;29;20033;-80
2021/11/02 02:31:06;;;;;;;7.03;1.80;;;7.20;99.30;;;;;;4899013;29;20040;-80
2021/11/02 02:33:47;;;;;;;5.63;1.60;;;7.20;99.30;;;;;;4898898;29;20033;-80
2021/11/02 02:36:17;;;;;;;5.43;2.20;;;7.20;99.30;;;;;;4899230;29;20040;-78
2021/11/02 02:38:46;;;;;;;3.60;1.50;;;7.20;99.30;;;;;;4900006;29;20064;-79
2021/11/02 02:41:13;;;;;;;5.27;1.50;;;7.20;99.40;;;;;;4898341;29;20044;-81
2021/11/02 02:43:43;;;;;;;6.17;2.07;;;7.10;99.40;;;;;;4930048;29;20374;-80
2021/11/02 02:46:10;;;;;;;6.50;2.07;;;7.10;99.40;;;;;;4899653;29;20047;-79
2021/11/02 02:48:39;;;;;;;7.63;1.87;;;7.10;99.50;;;;;;4915246;29;20382;-79
2021/11/02 02:51:06;;;;;;;4.83;1.70;;;7.00;99.50;;;;;;4898435;29;20032;-80
2021/11/02 02:53:32;;;;;;;7.83;2.03;;;7.00;99.50;;;;;;4930710;29;20458;-78
2021/11/02 02:56:02;;;;;;;4.93;1.97;;;6.90;99.50;;;;;;4915293;29;20064;-80
2021/11/02 02:58:38;;;;;;;9.00;2.40;;;7.00;99.60;;;;;;4898519;29;20036;-80
2021/11/02 03:01:16;;;;;;;4.80;1.83;;;6.90;99.60;;;;;;4898925;29;20140;-80
2021/11/02 03:03:50;;;;;;;7.77;1.90;;;6.90;99.60;;;;;;4899972;29;20036;-80
2021/11/02 03:06:18;;;;;;;10.97;2.07;;;6.80;99.70;;;;;;4899648;29;20367;-79
2021/11/02 03:08:44;;;;;;;9.67;2.10;;;6.80;99.70;;;;;;4899550;29;20036;-79
2021/11/02 03:11:11;;;;;;;4.63;1.90;;;6.70;99.70;;;;;;4898150;29;20125;-79
2021/11/02 03:13:43;;;;;;;7.50;2.00;;;6.70;99.70;;;;;;4930060;29;20078;-80
2021/11/02 03:16:13;;;;;;;8.27;2.53;;;6.60;99.80;;;;;;4898240;29;20123;-79
2021/11/02 03:49:19;;;;;;;5.22;2.50;;;6.50;99.80;;;;;;4884182;29;20032;-80
2021/11/02 03:54:41;;;;;;;4.87;1.97;;;6.50;99.80;;;;;;4901527;29;20073;-80
2021/11/02 05:11:04;;;;;;;5.47;2.53;;;6.50;99.90;;;;;;4900855;29;20107;-78
2021/11/02 05:20:08;;;;;;;3.47;2.30;;;6.60;99.90;;;;;;4900714;29;20123;-79
2021/11/02 05:46:43;;;;;;;5.67;2.80;;;6.90;99.40;;;;;;4925810;29;20054;-79
2021/11/02 05:56:54;;;;;;;5.23;2.63;;;6.80;99.30;;;;;;4930111;29;20045;-79
2021/11/02 05:59:29;;;;;;;5.53;2.83;;;6.70;99.30;;;;;;4927584;29;20413;-79
2021/11/02 06:30:17;;;;;;;7.67;2.60;;;6.80;99.50;;;;;;4899688;29;20055;-80
2021/11/02 06:32:48;;;;;;;7.20;2.10;;;6.90;99.70;;;;;;4897672;29;20037;-80
2021/11/02 06:49:15;;;;;;;6.03;2.20;;;7.50;98.80;;;;;;4899383;29;20050;-80
2021/11/02 06:59:59;;;;;;;8.30;1.20;;;7.80;98.30;;;;;;4898420;29;20048;-79
2021/11/02 07:19:37;;;;;;;4.47;1.10;;;8.40;97.60;;;;;;4898492;29;20045;-79
2021/11/02 07:22:50;;;;;;;3.93;1.10;;;8.40;97.10;;;;;;4898914;29;20041;-80
2021/11/02 08:46:02;;;;;;;12.07;4.40;;;9.00;96.40;;;;;;4901462;29;20444;-77
2021/11/02 08:48:29;;;;;;;15.67;5.53;;;8.80;96.40;;;;;;4912972;29;20386;-77
2021/11/02 08:50:56;;;;;;;18.70;8.13;;;8.70;96.60;;;;;;4900890;29;20033;-77
2021/11/02 08:53:24;;;;;;;28.87;12.27;;;8.70;97.00;;;;;;4900162;29;20493;-77
2021/11/02 08:55:51;;;;;;;14.30;5.70;;;8.90;97.90;;;;;;4900752;29;20058;-78
2021/11/02 08:58:24;;;;;;;16.37;6.47;;;9.10;98.20;;;;;;4915775;29;20389;-78
2021/11/02 09:00:53;;;;;;;19.33;6.37;;;9.30;97.90;;;;;;4900658;29;20052;-79
2021/11/02 09:03:22;;;;;;;17.53;7.90;;;9.40;97.90;;;;;;4900810;29;20044;-79
2021/11/02 09:05:57;;;;;;;19.80;8.80;;;9.40;97.40;;;;;;4905018;29;20041;-81
2021/11/02 09:08:27;;;;;;;15.03;6.93;;;9.70;97.90;;;;;;4903607;29;20033;-81
2021/11/02 09:10:53;;;;;;;17.43;8.13;;;9.90;97.70;;;;;;4906399;29;20044;-80
2021/11/02 09:13:23;;;;;;;17.17;9.73;;;10.20;97.30;;;;;;4899592;29;20096;-79
2021/11/02 09:15:50;;;;;;;11.60;7.03;;;10.40;96.60;;;;;;4900181;29;20553;-80
2021/11/02 09:18:18;;;;;;;12.00;6.67;;;10.50;96.00;;;;;;4900149;29;20474;-80
2021/11/02 09:20:44;;;;;;;9.83;6.17;;;10.60;95.40;;;;;;4914276;29;20052;-80
2021/11/02 09:23:09;;;;;;;12.80;6.30;;;10.70;95.20;;;;;;4900475;29;20028;-79
2021/11/02 09:25:36;;;;;;;10.47;7.37;;;10.70;95.00;;;;;;4903043;29;20346;-79
2021/11/02 09:28:03;;;;;;;17.90;9.30;;;10.90;95.10;;;;;;4900635;29;20040;-81
2021/11/02 09:30:29;;;;;;;8.80;5.27;;;10.90;94.60;;;;;;4899488;29;20052;-80
2021/11/02 09:32:56;;;;;;;8.77;6.27;;;11.10;94.60;;;;;;4899685;29;20449;-80
2021/11/02 09:35:26;;;;;;;13.93;6.40;;;11.00;94.10;;;;;;4900447;29;20048;-80
2021/11/02 09:37:51;;;;;;;8.97;6.10;;;11.10;94.20;;;;;;4905024;29;20059;-81
2021/11/02 09:40:58;;;;;;;10.90;5.03;;;11.10;94.10;;;;;;4904638;29;20477;-79
2021/11/02 09:43:44;;;;;;;7.43;4.03;;;11.20;93.90;;;;;;4905905;29;20037;-80
2021/11/02 09:47:09;;;;;;;9.00;5.67;;;11.30;93.90;;;;;;4902194;29;20036;-81
2021/11/02 09:50:01;;;;;;;8.18;6.07;;;11.30;93.50;;;;;;4881887;29;20040;-81
2021/11/02 09:52:57;;;;;;;6.73;5.10;;;11.50;94.10;;;;;;4863526;29;20106;-82
2021/11/02 09:56:02;;;;;;;9.43;6.83;;;11.80;93.30;;;;;;4899013;29;20044;-81
2021/11/02 09:58:39;;;;;;;8.70;3.73;;;12.10;92.90;;;;;;4863794;29;20478;-82
2021/11/02 10:01:17;;;;;;;5.60;3.50;;;12.30;91.30;;;;;;4863330;29;20541;-82
2021/11/02 10:04:05;;;;;;;4.03;2.22;;;12.30;91.30;;;;;;4884439;29;20036;-81
2021/11/02 10:06:55;;;;;;;4.38;2.70;;;12.30;89.50;;;;;;4899327;29;20039;-80
2021/11/02 10:09:55;;;;;;;4.72;2.47;;;12.50;90.30;;;;;;4899752;29;20508;-81
2021/11/02 10:12:23;;;;;;;5.82;2.63;;;12.70;89.90;;;;;;4898410;29;20497;-82
2021/11/02 10:15:09;;;;;;;6.55;3.63;;;13.10;88.10;;;;;;4898591;29;20032;-81
2021/11/02 10:18:07;;;;;;;4.57;2.47;;;13.40;88.70;;;;;;4930296;29;20124;-81
2021/11/02 10:21:27;;;;;;;3.53;2.05;;;13.50;86.20;;;;;;4898486;29;20117;-81
2021/11/02 10:24:29;;;;;;;4.75;2.03;;;13.40;85.00;;;;;;4862950;29;20066;-81
2021/11/02 10:27:30;;;;;;;5.53;2.75;;;13.20;84.80;;;;;;4930172;29;20040;-81
2021/11/02 10:30:17;;;;;;;4.85;2.33;;;12.90;84.60;;;;;;4883777;29;20068;-82
2021/11/02 10:32:47;;;;;;;4.85;2.28;;;12.70;85.80;;;;;;4898439;29;20481;-81
2021/11/02 10:35:20;;;;;;;7.72;3.53;;;12.70;85.70;;;;;;4913901;29;20370;-80
2021/11/02 10:38:02;;;;;;;;;;;12.70;85.70;;;;;;4898762;29;20080;-81
2021/11/02 10:40:34;;;;;;;4.40;2.75;;;12.80;86.00;;;;;;4900384;29;19911;-81
2021/11/02 10:43:09;;;;;;;4.35;1.08;;;12.90;86.90;;;;;;4898951;29;20044;-82
2021/11/02 10:45:36;;;;;;;3.22;1.42;;;13.00;85.10;;;;;;4900018;29;20119;-81
2021/11/02 10:48:10;;;;;;;3.78;1.30;;;12.90;84.90;;;;;;4898228;29;20096;-81
2021/11/02 10:50:38;;;;;;;4.63;2.25;;;12.80;85.00;;;;;;4898164;29;20052;-82
2021/11/02 10:53:08;;;;;;;3.90;0.82;;;12.80;86.90;;;;;;4899354;29;20486;-81
2021/11/02 10:55:56;;;;;;;1.23;0.80;;;12.80;84.40;;;;;;4914235;29;20089;-81
2021/11/02 10:58:35;;;;;;;4.78;1.15;;;12.60;83.20;;;;;;4899692;29;20036;-81
2021/11/02 11:01:10;;;;;;;2.72;1.00;;;12.40;85.30;;;;;;4897709;29;20079;-80
2021/11/02 11:03:37;;;;;;;3.25;0.90;;;12.50;85.90;;;;;;4899867;29;20511;-81
2021/11/02 11:06:13;;;;;;;5.03;1.70;;;12.50;84.70;;;;;;4898061;29;20059;-81
2021/11/02 11:08:45;;;;;;;5.38;0.80;;;12.60;86.20;;;;;;4899883;29;20132;-82
2021/11/02 11:11:18;;;;;;;6.13;1.00;;;12.70;86.00;;;;;;4899320;29;20037;-82
2021/11/02 11:13:47;;;;;;;3.97;1.33;;;12.70;86.30;;;;;;4929515;29;20033;-81
2021/11/02 11:16:16;;;;;;;2.53;1.20;;;12.70;84.70;;;;;;4897327;29;20033;-82
2021/11/02 11:18:58;;;;;;;3.40;1.23;;;12.80;86.00;;;;;;4898649;29;20032;-82
2021/11/02 11:21:27;;;;;;;3.78;0.80;;;12.80;83.80;;;;;;4898227;29;20445;-81
2021/11/02 11:24:08;;;;;;;4.13;1.10;;;12.80;84.20;;;;;;4897391;29;20072;-82
2021/11/02 11:26:34;;;;;;;2.58;0.60;;;12.60;82.70;;;;;;4898237;29;20075;-81
2021/11/02 11:29:04;;;;;;;3.03;0.70;;;12.60;83.80;;;;;;4896885;29;20059;-80
2021/11/02 11:31:30;;;;;;;2.85;0.60;;;12.60;84.40;;;;;;4897438;29;20095;-81
2021/11/02 11:34:01;;;;;;;3.50;1.10;;;12.80;83.70;;;;;;4929230;29;20526;-80
2021/11/02 11:36:28;;;;;;;4.00;1.52;;;13.00;84.30;;;;;;4897180;29;20131;-81
2021/11/02 11:38:58;;;;;;;4.10;1.45;;;13.20;84.00;;;;;;4897108;29;20500;-80
2021/11/02 11:41:26;;;;;;;3.33;1.73;;;13.40;83.60;;;;;;4897287;29;20041;-81
2021/11/02 11:43:54;;;;;;;3.90;1.48;;;13.50;83.40;;;;;;4928217;29;20092;-80
2021/11/02 11:46:20;;;;;;;3.03;0.50;;;13.60;83.80;;;;;;4897886;29;20060;-80
2021/11/02 11:48:55;;;;;;;3.15;1.15;;;13.50;80.60;;;;;;4898372;29;20048;-80
2021/11/02 11:51:26;;;;;;;2.38;0.73;;;13.30;81.60;;;;;;4902198;29;20181;-80
2021/11/02 11:54:03;;;;;;;2.30;0.60;;;13.30;81.00;;;;;;4900924;29;20041;-80
2021/11/02 11:56:36;;;;;;;2.45;0.85;;;13.40;82.70;;;;;;4900891;29;20120;-80
2021/11/02 11:59:04;;;;;;;2.45;0.60;;;13.30;80.00;;;;;;4900610;29;20084;-80
2021/11/02 12:02:00;;;;;;;2.40;0.93;;;13.40;80.80;;;;;;4902078;29;20057;-80
2021/11/02 12:04:52;;;;;;;2.42;0.88;;;13.30;81.40;;;;;;4897305;29;20072;-79
2021/11/02 12:07:27;;;;;;;1.83;0.60;;;13.40;82.10;;;;;;4900036;29;20033;-80
2021/11/02 12:09:54;;;;;;;2.30;1.40;;;13.40;81.30;;;;;;4901925;29;20041;-79
2021/11/02 12:12:23;;;;;;;3.13;1.27;;;13.50;81.70;;;;;;4900461;29;20052;-80
2021/11/02 12:14:53;;;;;;;2.42;0.57;;;13.50;81.80;;;;;;4916019;29;20085;-80
2021/11/02 12:17:24;;;;;;;5.60;1.60;;;13.50;81.30;;;;;;4931829;29;20428;-80
2021/11/02 12:19:57;;;;;;;2.60;1.23;;;13.50;81.80;;;;;;4900733;29;20033;-80
2021/11/02 12:22:59;;;;;;;3.78;1.45;;;13.40;82.30;;;;;;4900728;29;20028;-80
2021/11/02 12:25:31;;;;;;;2.58;0.68;;;13.40;82.10;;;;;;4893315;29;20033;-80
2021/11/02 12:27:58;;;;;;;3.38;0.80;;;13.20;81.20;;;;;;4916516;29;20040;-80
2021/11/02 12:30:25;;;;;;;2.30;0.80;;;13.10;82.40;;;;;;4899959;29;20040;-80
2021/11/02 12:32:56;;;;;;;2.88;0.50;;;13.10;82.40;;;;;;4900325;29;20473;-80
2021/11/02 12:35:35;;;;;;;2.42;0.50;;;13.00;80.50;;;;;;4900168;29;20115;-80
2021/11/02 12:38:04;;;;;;;3.72;0.73;;;12.90;81.80;;;;;;4900081;29;20421;-80
2021/11/02 12:40:35;;;;;;;2.30;0.57;;;12.80;82.50;;;;;;4899817;29;20076;-80
2021/11/02 12:43:01;;;;;;;1.35;0.47;;;12.80;82.00;;;;;;4901078;29;20037;-80
2021/11/02 12:45:34;;;;;;;1.85;0.60;;;12.80;82.10;;;;;;4901211;29;20188;-79
2021/11/02 12:48:02;;;;;;;2.60;0.80;;;12.70;82.20;;;;;;4900123;29;20037;-80
2021/11/02 12:50:36;;;;;;;2.40;0.65;;;12.60;83.00;;;;;;4931256;29;20044;-79
2021/11/02 12:53:02;;;;;;;2.60;0.57;;;12.60;83.90;;;;;;4899997;29;20033;-79
2021/11/02 12:55:32;;;;;;;1.42;0.40;;;12.50;85.40;;;;;;4930970;29;20036;-78
2021/11/02 12:58:10;;;;;;;0.38;0.13;;;12.30;85.20;;;;;;4915243;29;20041;-77
2021/11/02 13:00:59;;;;;;;1.02;0.30;;;11.90;84.40;;;;;;4898061;29;20048;-78
2021/11/02 13:03:34;;;;;;;1.63;0.40;;;11.60;87.90;;;;;;4900776;29;20066;-79
2021/11/02 13:06:07;;;;;;;1.60;0.40;;;11.50;90.10;;;;;;4899780;29;20047;-78
2021/11/02 13:08:54;;;;;;;1.93;0.50;;;11.60;91.50;;;;;;4899416;29;20032;-77
2021/11/02 13:11:25;;;;;;;2.80;0.40;;;11.80;92.10;;;;;;4900574;29;20040;-78
2021/11/02 13:14:00;;;;;;;1.45;0.50;;;11.90;91.90;;;;;;4899794;29;20381;-79
2021/11/02 13:16:28;;;;;;;1.75;0.40;;;12.10;92.00;;;;;;4899115;29;20496;-78
2021/11/02 13:18:53;;;;;;;1.42;0.30;;;12.30;91.90;;;;;;4899385;29;20363;-78
2021/11/02 13:21:30;;;;;;;1.05;0.40;;;12.40;90.80;;;;;;4914882;29;20051;-79
2021/11/02 13:24:07;;;;;;;1.30;0.30;;;12.50;91.00;;;;;;4900480;29;20124;-78
2021/11/02 13:26:34;;;;;;;1.00;0.30;;;12.50;91.00;;;;;;4900417;29;20068;-78
2021/11/02 13:29:11;;;;;;;2.35;0.40;;;12.40;90.70;;;;;;4899030;29;20072;-78
2021/11/02 13:31:37;;;;;;;1.08;0.40;;;12.40;90.80;;;;;;4899749;29;20036;-79
2021/11/02 13:34:07;;;;;;;2.90;0.90;;;12.40;90.70;;;;;;4899975;29;20033;-79
2021/11/02 13:36:33;;;;;;;1.80;0.50;;;12.40;90.90;;;;;;4899764;29;20564;-79
2021/11/02 13:39:02;;;;;;;7.72;1.23;;;12.50;91.10;;;;;;4929745;29;20049;-79
2021/11/02 13:41:31;;;;;;;3.50;1.38;;;12.50;91.10;;;;;;4929576;29;20048;-79
2021/11/02 13:44:05;;;;;;;9.55;1.10;;;12.60;91.00;;;;;;4898609;29;20405;-79
2021/11/02 13:46:36;;;;;;;3.03;0.60;;;12.60;90.60;;;;;;4898858;29;20033;-79
2021/11/02 13:49:03;;;;;;;3.33;1.70;;;12.60;90.60;;;;;;4898352;29;20060;-79
2021/11/02 13:51:29;;;;;;;3.20;1.15;;;12.50;90.60;;;;;;4898685;29;20081;-80
2021/11/02 13:53:54;;;;;;;4.38;2.03;;;12.60;90.70;;;;;;4899895;29;20109;-80
2021/11/02 13:56:25;;;;;;;5.20;1.25;;;12.60;90.80;;;;;;4899343;29;20043;-80
2021/11/02 13:58:52;;;;;;;2.92;1.35;;;12.60;90.60;;;;;;4900202;29;20076;-80
2021/11/02 14:01:29;;;;;;;4.65;2.80;;;12.50;90.80;;;;;;4929395;29;20059;-79
2021/11/02 14:04:01;;;;;;;3.40;2.28;;;12.50;91.20;;;;;;4899880;29;20084;-81
2021/11/02 14:06:28;;;;;;;6.50;3.28;;;12.50;91.40;;;;;;4898346;29;20116;-80
2021/11/02 14:08:56;;;;;;;3.85;2.88;;;12.40;91.60;;;;;;4899534;29;20040;-80
2021/11/02 14:11:25;;;;;;;4.18;2.72;;;12.30;91.70;;;;;;4898263;29;20480;-79
2021/11/02 14:13:52;;;;;;;3.53;1.92;;;12.10;91.80;;;;;;4898163;29;20059;-79
2021/11/02 14:16:35;;;;;;;3.88;2.92;;;11.90;91.70;;;;;;4914072;29;20462;-80
2021/11/02 14:19:03;;;;;;;7.47;4.97;;;11.80;92.20;;;;;;4899555;29;20064;-79
2021/11/02 14:21:46;;;;;;;7.65;4.82;;;11.70;92.90;;;;;;4898642;29;20055;-81
2021/11/02 14:24:11;;;;;;;10.70;6.72;;;11.70;93.30;;;;;;4899185;29;20033;-80
2021/11/02 14:26:47;;;;;;;7.47;4.40;;;11.70;93.40;;;;;;4898972;29;20039;-77
2021/11/02 14:29:14;;;;;;;5.60;4.27;;;11.80;93.50;;;;;;4913465;29;20041;-80
2021/11/02 14:31:43;;;;;;;7.65;5.50;;;11.70;93.40;;;;;;4898901;29;20051;-79
2021/11/02 14:34:28;;;;;;;11.63;7.10;;;11.70;93.50;;;;;;4897787;29;20041;-78
2021/11/02 14:37:13;;;;;;;8.55;5.55;;;11.70;93.70;;;;;;4897914;29;20039;-78
2021/11/02 14:40:02;;;;;;;10.15;6.95;;;11.70;93.50;;;;;;4899513;29;20040;-80
2021/11/02 14:42:38;;;;;;;12.33;6.40;;;11.80;93.70;;;;;;4897886;29;20087;-80
2021/11/02 14:45:05;;;;;;;13.32;6.82;;;11.90;93.80;;;;;;4913442;29;20043;-79
2021/11/02 14:47:35;;;;;;;11.02;7.00;;;11.90;93.70;;;;;;4913152;29;20033;-80
2021/11/02 14:50:03;;;;;;;10.88;7.82;;;11.90;93.70;;;;;;4928828;29;20051;-80
2021/11/02 14:52:37;;;;;;;10.30;6.97;;;11.80;93.70;;;;;;4898747;29;20041;-80
2021/11/02 14:55:03;;;;;;;15.57;9.98;;;11.80;93.80;;;;;;4897845;29;20484;-80
2021/11/02 14:57:29;;;;;;;17.55;11.18;;;11.70;93.80;;;;;;4928726;29;20067;-80
2021/11/02 15:00:00;;;;;;;17.80;12.50;;;11.60;94.00;;;;;;4898758;29;20469;-79
2021/11/02 15:02:35;;;;;;;16.42;11.55;;;11.60;94.10;;;;;;4897246;29;20406;-79
2021/11/02 15:05:05;;;;;;;16.37;12.27;;;11.60;94.20;;;;;;4899232;29;20343;-79
2021/11/02 15:07:36;;;;;;;17.75;13.02;;;11.50;94.30;;;;;;4898366;29;20391;-80
2021/11/02 15:10:07;;;;;;;23.90;16.60;;;11.50;94.40;;;;;;4897319;29;20040;-82
2021/11/02 15:12:32;;;;;;;21.90;14.63;;;11.50;94.60;;;;;;4882190;29;20123;-80
2021/11/02 15:15:00;;;;;;;27.10;17.97;;;11.50;94.60;;;;;;4899322;29;20073;-83
2021/11/02 15:17:26;;;;;;;20.93;14.83;;;11.50;94.70;;;;;;4898034;29;20040;-81
2021/11/02 15:19:53;;;;;;;29.20;18.90;;;11.50;94.90;;;;;;4897520;29;20033;-83
2021/11/02 15:22:21;;;;;;;29.07;19.20;;;11.50;94.90;;;;;;4897798;29;20049;-83
2021/11/02 15:24:56;;;;;;;22.73;15.27;;;11.50;95.00;;;;;;4898198;29;20040;-84
2021/11/02 15:27:27;;;;;;;20.23;13.93;;;11.40;95.10;;;;;;4897396;29;20392;-84
2021/11/02 15:30:00;;;;;;;18.23;13.03;;;11.40;95.00;;;;;;4898776;29;20452;-84
2021/11/02 15:32:28;;;;;;;19.05;14.15;;;11.30;95.10;;;;;;4898552;29;20040;-84
2021/11/02 15:35:04;;;;;;;22.50;16.33;;;11.30;95.10;;;;;;4897037;29;20107;-84
2021/11/02 15:37:52;;;;;;;20.80;15.00;;;11.20;95.30;;;;;;4896969;29;20481;-84
2021/11/02 15:40:20;;;;;;;15.00;11.93;;;11.20;95.30;;;;;;4900257;29;20040;-84
2021/11/02 15:42:49;;;;;;;18.73;14.17;;;11.10;95.20;;;;;;4898931;29;20040;-84
2021/11/02 15:45:23;;;;;;;15.83;12.30;;;11.00;95.40;;;;;;4900908;29;20532;-83
2021/11/02 15:47:51;;;;;;;21.30;16.13;;;11.00;95.30;;;;;;4900711;29;20033;-85
2021/11/02 15:50:25;;;;;;;23.60;16.07;;;10.90;95.40;;;;;;4899371;29;20135;-84
2021/11/02 15:52:57;;;;;;;22.90;16.77;;;10.90;95.50;;;;;;4899154;29;20040;-85
2021/11/02 15:55:24;;;;;;;18.90;14.80;;;10.90;95.60;;;;;;4900203;29;20040;-84
2021/11/02 15:57:54;;;;;;;18.60;13.03;;;10.90;95.60;;;;;;4898540;29;20481;-83
2021/11/02 16:00:34;;;;;;;17.77;12.53;;;10.90;95.50;;;;;;4899024;29;20052;-84
2021/11/02 16:03:01;;;;;;;12.23;10.47;;;10.80;95.50;;;;;;4898940;29;20037;-84
2021/11/02 16:05:33;;;;;;;28.30;18.77;;;10.80;95.40;;;;;;4897353;29;20469;-84
2021/11/02 16:08:22;;;;;;;22.23;15.43;;;10.70;95.70;;;;;;4897560;29;20029;-84
2021/11/02 16:11:01;;;;;;;22.10;15.50;;;10.80;95.80;;;;;;4897543;29;20195;-84
2021/11/02 16:13:30;;;;;;;14.43;12.60;;;10.80;95.80;;;;;;4897784;29;20033;-84
2021/11/02 16:15:59;;;;;;;20.33;14.77;;;10.80;95.80;;;;;;4881701;29;20121;-85
2021/11/02 16:18:29;;;;;;;22.70;16.90;;;10.60;95.80;;;;;;4885295;29;20040;-85
2021/11/02 16:21:00;;;;;;;21.77;16.40;;;10.70;96.00;;;;;;4901690;29;20193;-85
2021/11/02 16:23:39;;;;;;;21.73;15.73;;;10.60;96.10;;;;;;4883495;29;20504;-84
2021/11/02 16:26:16;;;;;;;23.20;17.23;;;10.60;96.10;;;;;;4899041;29;20044;-85
2021/11/02 16:28:42;;;;;;;22.70;17.33;;;10.60;96.20;;;;;;4898262;29;20536;-83
2021/11/02 16:31:09;;;;;;;23.10;15.57;;;10.60;96.30;;;;;;4898730;29;20132;-85
2021/11/02 16:33:39;;;;;;;17.87;14.03;;;10.50;96.30;;;;;;4898352;29;20033;-85
2021/11/02 16:36:14;;;;;;;19.93;15.50;;;10.40;96.30;;;;;;4899739;29;20163;-85
2021/11/02 16:38:39;;;;;;;16.70;13.43;;;10.40;96.50;;;;;;4900678;29;20131;-85
2021/11/02 16:41:16;;;;;;;19.43;15.13;;;10.40;96.50;;;;;;4885728;29;20139;-85
2021/11/02 16:43:50;;;;;;;19.10;15.27;;;10.30;96.60;;;;;;4900612;29;20048;-81
2021/11/02 16:46:33;;;;;;;21.97;15.40;;;10.30;96.60;;;;;;4900360;29;20049;-81
2021/11/02 16:49:20;;;;;;;21.00;16.50;;;10.20;96.70;;;;;;4900008;29;20037;-81
2021/11/02 16:51:56;;;;;;;17.90;14.13;;;10.20;96.70;;;;;;4901417;29;20136;-81
2021/11/02 16:54:25;;;;;;;24.07;18.43;;;10.20;96.80;;;;;;4900040;29;20040;-82
2021/11/02 16:57:05;;;;;;;22.57;17.73;;;10.10;96.90;;;;;;4900918;29;20115;-81
2021/11/02 16:59:40;;;;;;;22.77;18.23;;;10.10;97.10;;;;;;4899818;29;20047;-81
2021/11/02 17:02:35;;;;;;;21.60;16.77;;;10.10;97.10;;;;;;4899125;29;20169;-81
2021/11/02 17:05:10;;;;;;;21.90;17.37;;;10.00;97.00;;;;;;4900198;29;20029;-81
2021/11/02 17:07:50;;;;;;;23.60;18.30;;;9.90;97.10;;;;;;4900912;29;20037;-81
2021/11/02 17:10:22;;;;;;;19.97;15.33;;;9.90;97.10;;;;;;4899755;29;20477;-81
2021/11/02 17:12:54;;;;;;;24.92;18.23;;;9.90;97.10;;;;;;4899631;29;20131;-81
2021/11/02 17:15:21;;;;;;;23.80;17.10;;;9.80;97.20;;;;;;4899354;29;20422;-80
2021/11/02 17:17:49;;;;;;;20.93;17.07;;;9.80;97.20;;;;;;4903383;29;20033;-81
2021/11/02 17:20:15;;;;;;;21.40;16.90;;;9.70;97.20;;;;;;4909151;29;20036;-82
2021/11/02 17:22:41;;;;;;;25.40;18.87;;;9.60;97.10;;;;;;4907272;29;20033;-82
2021/11/02 17:25:08;;;;;;;22.27;18.47;;;9.50;97.20;;;;;;4907316;29;20040;-84
2021/11/02 17:27:34;;;;;;;28.53;22.07;;;9.40;97.30;;;;;;4907102;29;20041;-81
2021/11/02 17:30:02;;;;;;;26.30;19.37;;;9.40;97.40;;;;;;4907826;29;20043;-81
2021/11/02 17:32:30;;;;;;;24.33;18.23;;;9.30;97.50;;;;;;4905974;29;20032;-81
2021/11/02 17:34:58;;;;;;;23.77;18.40;;;9.20;97.50;;;;;;4905477;29;20047;-81
2021/11/02 17:37:27;;;;;;;28.60;22.07;;;9.10;97.60;;;;;;4904931;29;20041;-81
2021/11/02 17:39:54;;;;;;;25.10;18.87;;;9.00;97.80;;;;;;4905562;29;20033;-82
2021/11/02 17:42:20;;;;;;;25.97;19.10;;;8.90;97.80;;;;;;4884215;29;20036;-80
2021/11/02 17:44:46;;;;;;;33.70;23.03;;;8.90;98.00;;;;;;4883978;29;20037;-80
2021/11/02 17:47:13;;;;;;;26.67;19.30;;;8.80;98.00;;;;;;4898850;29;20032;-80
2021/11/02 17:49:40;;;;;;;28.40;21.07;;;8.80;98.00;;;;;;4900036;29;20041;-80
2021/11/02 17:52:07;;;;;;;30.70;22.40;;;8.70;98.10;;;;;;4898361;29;20397;-79
2021/11/02 17:54:34;;;;;;;31.93;24.30;;;8.60;98.20;;;;;;4900091;29;20039;-80
2021/11/02 17:57:00;;;;;;;25.43;21.43;;;8.60;98.30;;;;;;4898725;29;20118;-80
2021/11/02 17:59:26;;;;;;;27.70;20.87;;;8.50;98.30;;;;;;4898746;29;20032;-79
2021/11/02 18:01:55;;;;;;;33.70;24.27;;;8.40;98.30;;;;;;4882450;29;20066;-79
2021/11/02 18:04:22;;;;;;;42.87;31.03;;;8.30;98.40;;;;;;4898363;29;20040;-80
2021/11/02 18:06:48;;;;;;;28.00;21.67;;;8.30;98.50;;;;;;4900189;29;20068;-79